sensor_id;sensor_type;location;lat;lon;timestamp;P1;durP1;ratioP1;P2;durP2;ratioP2
77513;SDS011;66626;48.872;9.084;2023-04-10T00:01:42;15.02;;;6.97;;
77513;SDS011;66626;48.872;9.084;2023-04-10T00:04:07;13.98;;;6.95;;
77513;SDS011;66626;48.872;9.084;2023-04-10T00:06:33;12.50;;;6.85;;
77513;SDS011;66626;48.872;9.084;2023-04-10T00:08:58;12.60;;;5.78;;
77513;SDS011;66626;48.872;9.084;2023-04-10T00:11:24;13.18;;;6.03;;
77513;SDS011;66626;48.872;9.084;2023-04-10T00:13:50;13.40;;;6.90;;
77513;SDS011;66626;48.872;9.084;2023-04-10T00:16:16;11.25;;;6.28;;
77513;SDS011;66626;48.872;9.084;2023-04-10T00:18:41;11.75;;;6.35;;
77513;SDS011;66626;48.872;9.084;2023-04-10T00:21:07;13.70;;;6.35;;
77513;SDS011;66626;48.872;9.084;2023-04-10T00:23:32;15.85;;;7.32;;
77513;SDS011;66626;48.872;9.084;2023-04-10T00:25:59;12.30;;;6.05;;
77513;SDS011;66626;48.872;9.084;2023-04-10T00:28:25;14.15;;;6.15;;
77513;SDS011;66626;48.872;9.084;2023-04-10T00:30:50;14.15;;;6.53;;
77513;SDS011;66626;48.872;9.084;2023-04-10T00:33:15;12.57;;;6.80;;
77513;SDS011;66626;48.872;9.084;2023-04-10T00:35:40;11.90;;;5.38;;
77513;SDS011;66626;48.872;9.084;2023-04-10T00:38:06;11.80;;;6.05;;
77513;SDS011;66626;48.872;9.084;2023-04-10T00:40:31;13.23;;;6.43;;
77513;SDS011;66626;48.872;9.084;2023-04-10T00:42:56;14.32;;;6.45;;
77513;SDS011;66626;48.872;9.084;2023-04-10T00:45:22;12.20;;;6.22;;
77513;SDS011;66626;48.872;9.084;2023-04-10T00:47:47;12.48;;;6.75;;
77513;SDS011;66626;48.872;9.084;2023-04-10T00:50:13;12.20;;;6.28;;
77513;SDS011;66626;48.872;9.084;2023-04-10T00:52:38;14.48;;;6.55;;
77513;SDS011;66626;48.872;9.084;2023-04-10T00:55:03;12.40;;;6.85;;
77513;SDS011;66626;48.872;9.084;2023-04-10T00:57:29;14.23;;;7.00;;
77513;SDS011;66626;48.872;9.084;2023-04-10T00:59:56;11.63;;;6.18;;
77513;SDS011;66626;48.872;9.084;2023-04-10T01:02:21;12.95;;;6.40;;
77513;SDS011;66626;48.872;9.084;2023-04-10T01:04:46;12.23;;;5.75;;
77513;SDS011;66626;48.872;9.084;2023-04-10T01:10:30;13.77;;;6.70;;
77513;SDS011;66626;48.872;9.084;2023-04-10T01:13:12;12.88;;;6.10;;
77513;SDS011;66626;48.872;9.084;2023-04-10T01:15:42;14.82;;;6.97;;
77513;SDS011;66626;48.872;9.084;2023-04-10T01:20:48;14.65;;;6.47;;
77513;SDS011;66626;48.872;9.084;2023-04-10T01:23:23;15.23;;;7.18;;
77513;SDS011;66626;48.872;9.084;2023-04-10T01:25:53;14.07;;;5.47;;
77513;SDS011;66626;48.872;9.084;2023-04-10T01:31:18;14.95;;;7.30;;
77513;SDS011;66626;48.872;9.084;2023-04-10T01:33:49;16.10;;;6.85;;
77513;SDS011;66626;48.872;9.084;2023-04-10T01:36:19;12.05;;;6.18;;
77513;SDS011;66626;48.872;9.084;2023-04-10T01:38:46;13.88;;;6.85;;
77513;SDS011;66626;48.872;9.084;2023-04-10T01:41:12;11.95;;;5.72;;
77513;SDS011;66626;48.872;9.084;2023-04-10T01:43:39;16.60;;;6.90;;
77513;SDS011;66626;48.872;9.084;2023-04-10T01:46:05;14.00;;;6.80;;
77513;SDS011;66626;48.872;9.084;2023-04-10T01:48:32;12.57;;;6.78;;
77513;SDS011;66626;48.872;9.084;2023-04-10T01:50:59;16.73;;;7.60;;
77513;SDS011;66626;48.872;9.084;2023-04-10T01:53:27;14.30;;;6.57;;
77513;SDS011;66626;48.872;9.084;2023-04-10T01:55:53;12.45;;;5.90;;
77513;SDS011;66626;48.872;9.084;2023-04-10T01:58:19;14.13;;;6.22;;
77513;SDS011;66626;48.872;9.084;2023-04-10T02:00:44;12.10;;;6.00;;
77513;SDS011;66626;48.872;9.084;2023-04-10T02:03:09;13.90;;;6.55;;
77513;SDS011;66626;48.872;9.084;2023-04-10T02:05:41;13.02;;;6.57;;
77513;SDS011;66626;48.872;9.084;2023-04-10T02:08:33;13.85;;;6.15;;
77513;SDS011;66626;48.872;9.084;2023-04-10T02:11:30;14.18;;;6.35;;
77513;SDS011;66626;48.872;9.084;2023-04-10T02:13:59;11.48;;;5.65;;
77513;SDS011;66626;48.872;9.084;2023-04-10T02:16:26;14.13;;;6.10;;
77513;SDS011;66626;48.872;9.084;2023-04-10T02:18:53;10.68;;;5.22;;
77513;SDS011;66626;48.872;9.084;2023-04-10T02:21:19;14.38;;;5.57;;
77513;SDS011;66626;48.872;9.084;2023-04-10T02:23:44;13.77;;;6.85;;
77513;SDS011;66626;48.872;9.084;2023-04-10T02:26:10;12.82;;;5.88;;
77513;SDS011;66626;48.872;9.084;2023-04-10T02:28:36;13.45;;;6.13;;
77513;SDS011;66626;48.872;9.084;2023-04-10T02:31:03;12.43;;;5.97;;
77513;SDS011;66626;48.872;9.084;2023-04-10T02:33:28;14.27;;;6.10;;
77513;SDS011;66626;48.872;9.084;2023-04-10T02:35:54;14.73;;;6.68;;
77513;SDS011;66626;48.872;9.084;2023-04-10T02:38:19;13.10;;;6.05;;
77513;SDS011;66626;48.872;9.084;2023-04-10T02:40:44;14.85;;;7.07;;
77513;SDS011;66626;48.872;9.084;2023-04-10T02:43:10;14.45;;;6.88;;
77513;SDS011;66626;48.872;9.084;2023-04-10T02:45:35;14.20;;;6.55;;
77513;SDS011;66626;48.872;9.084;2023-04-10T02:48:00;14.73;;;5.68;;
77513;SDS011;66626;48.872;9.084;2023-04-10T02:50:26;14.05;;;6.43;;
77513;SDS011;66626;48.872;9.084;2023-04-10T02:52:54;16.30;;;6.20;;
77513;SDS011;66626;48.872;9.084;2023-04-10T02:55:20;15.52;;;6.57;;
77513;SDS011;66626;48.872;9.084;2023-04-10T02:57:45;15.93;;;7.30;;
77513;SDS011;66626;48.872;9.084;2023-04-10T03:00:11;16.42;;;7.05;;
77513;SDS011;66626;48.872;9.084;2023-04-10T03:02:37;14.30;;;6.13;;
77513;SDS011;66626;48.872;9.084;2023-04-10T03:05:02;17.00;;;7.25;;
77513;SDS011;66626;48.872;9.084;2023-04-10T03:07:27;13.07;;;6.20;;
77513;SDS011;66626;48.872;9.084;2023-04-10T03:09:53;15.48;;;7.40;;
77513;SDS011;66626;48.872;9.084;2023-04-10T03:12:18;16.33;;;7.00;;
77513;SDS011;66626;48.872;9.084;2023-04-10T03:14:44;12.07;;;6.32;;
77513;SDS011;66626;48.872;9.084;2023-04-10T03:17:09;15.50;;;7.38;;
77513;SDS011;66626;48.872;9.084;2023-04-10T03:19:36;14.50;;;6.43;;
77513;SDS011;66626;48.872;9.084;2023-04-10T03:22:01;15.40;;;6.63;;
77513;SDS011;66626;48.872;9.084;2023-04-10T03:24:27;12.20;;;6.22;;
77513;SDS011;66626;48.872;9.084;2023-04-10T03:26:52;15.65;;;6.55;;
77513;SDS011;66626;48.872;9.084;2023-04-10T03:29:18;12.52;;;5.82;;
77513;SDS011;66626;48.872;9.084;2023-04-10T03:31:43;13.98;;;7.18;;
77513;SDS011;66626;48.872;9.084;2023-04-10T03:34:09;14.98;;;6.40;;
77513;SDS011;66626;48.872;9.084;2023-04-10T03:36:34;13.30;;;6.53;;
77513;SDS011;66626;48.872;9.084;2023-04-10T03:38:59;12.25;;;5.53;;
77513;SDS011;66626;48.872;9.084;2023-04-10T03:41:25;11.23;;;5.15;;
77513;SDS011;66626;48.872;9.084;2023-04-10T03:43:50;13.40;;;6.63;;
77513;SDS011;66626;48.872;9.084;2023-04-10T03:46:15;11.55;;;6.00;;
77513;SDS011;66626;48.872;9.084;2023-04-10T03:48:41;10.43;;;5.97;;
77513;SDS011;66626;48.872;9.084;2023-04-10T03:51:06;10.93;;;5.50;;
77513;SDS011;66626;48.872;9.084;2023-04-10T03:53:32;12.55;;;6.30;;
77513;SDS011;66626;48.872;9.084;2023-04-10T03:56:00;17.38;;;6.82;;
77513;SDS011;66626;48.872;9.084;2023-04-10T03:58:26;17.05;;;7.60;;
77513;SDS011;66626;48.872;9.084;2023-04-10T04:00:51;21.10;;;8.73;;
77513;SDS011;66626;48.872;9.084;2023-04-10T04:03:16;16.95;;;7.05;;
77513;SDS011;66626;48.872;9.084;2023-04-10T04:05:42;14.93;;;6.78;;
77513;SDS011;66626;48.872;9.084;2023-04-10T04:08:07;15.88;;;7.38;;
77513;SDS011;66626;48.872;9.084;2023-04-10T04:10:32;15.27;;;7.50;;
77513;SDS011;66626;48.872;9.084;2023-04-10T04:12:58;16.55;;;7.63;;
77513;SDS011;66626;48.872;9.084;2023-04-10T04:15:23;18.92;;;7.70;;
77513;SDS011;66626;48.872;9.084;2023-04-10T04:17:48;15.93;;;7.53;;
77513;SDS011;66626;48.872;9.084;2023-04-10T04:20:14;18.38;;;7.85;;
77513;SDS011;66626;48.872;9.084;2023-04-10T04:22:39;15.75;;;8.10;;
77513;SDS011;66626;48.872;9.084;2023-04-10T04:25:05;14.68;;;7.53;;
77513;SDS011;66626;48.872;9.084;2023-04-10T04:27:34;12.95;;;7.10;;
77513;SDS011;66626;48.872;9.084;2023-04-10T04:30:00;16.67;;;8.38;;
77513;SDS011;66626;48.872;9.084;2023-04-10T04:32:26;15.30;;;8.23;;
77513;SDS011;66626;48.872;9.084;2023-04-10T04:34:51;15.32;;;8.20;;
77513;SDS011;66626;48.872;9.084;2023-04-10T04:37:17;15.30;;;7.47;;
77513;SDS011;66626;48.872;9.084;2023-04-10T04:39:42;17.50;;;8.15;;
77513;SDS011;66626;48.872;9.084;2023-04-10T04:42:07;15.15;;;6.90;;
77513;SDS011;66626;48.872;9.084;2023-04-10T04:44:32;21.00;;;7.95;;
77513;SDS011;66626;48.872;9.084;2023-04-10T04:46:58;15.52;;;6.88;;
77513;SDS011;66626;48.872;9.084;2023-04-10T04:49:23;15.82;;;6.93;;
77513;SDS011;66626;48.872;9.084;2023-04-10T04:51:49;14.90;;;7.65;;
77513;SDS011;66626;48.872;9.084;2023-04-10T04:54:14;13.15;;;6.75;;
77513;SDS011;66626;48.872;9.084;2023-04-10T04:56:39;15.73;;;7.43;;
77513;SDS011;66626;48.872;9.084;2023-04-10T04:59:05;13.40;;;6.40;;
77513;SDS011;66626;48.872;9.084;2023-04-10T05:01:30;14.23;;;7.65;;
77513;SDS011;66626;48.872;9.084;2023-04-10T05:03:55;15.65;;;7.10;;
77513;SDS011;66626;48.872;9.084;2023-04-10T05:06:21;15.50;;;6.88;;
77513;SDS011;66626;48.872;9.084;2023-04-10T05:08:46;18.00;;;7.03;;
77513;SDS011;66626;48.872;9.084;2023-04-10T05:11:11;14.43;;;6.68;;
77513;SDS011;66626;48.872;9.084;2023-04-10T05:13:37;15.45;;;7.90;;
77513;SDS011;66626;48.872;9.084;2023-04-10T05:16:02;16.95;;;8.15;;
77513;SDS011;66626;48.872;9.084;2023-04-10T05:18:27;15.65;;;6.65;;
77513;SDS011;66626;48.872;9.084;2023-04-10T05:20:53;16.65;;;7.63;;
77513;SDS011;66626;48.872;9.084;2023-04-10T05:23:18;13.60;;;6.15;;
77513;SDS011;66626;48.872;9.084;2023-04-10T05:25:43;12.00;;;6.50;;
77513;SDS011;66626;48.872;9.084;2023-04-10T05:28:09;15.60;;;7.57;;
77513;SDS011;66626;48.872;9.084;2023-04-10T05:30:34;16.30;;;7.88;;
77513;SDS011;66626;48.872;9.084;2023-04-10T05:33:00;19.23;;;7.95;;
77513;SDS011;66626;48.872;9.084;2023-04-10T05:35:25;15.07;;;6.93;;
77513;SDS011;66626;48.872;9.084;2023-04-10T05:37:50;14.45;;;7.88;;
77513;SDS011;66626;48.872;9.084;2023-04-10T05:40:15;14.18;;;7.28;;
77513;SDS011;66626;48.872;9.084;2023-04-10T05:42:41;16.33;;;7.35;;
77513;SDS011;66626;48.872;9.084;2023-04-10T05:45:06;12.98;;;6.82;;
77513;SDS011;66626;48.872;9.084;2023-04-10T05:47:32;16.13;;;6.88;;
77513;SDS011;66626;48.872;9.084;2023-04-10T05:49:57;13.63;;;7.00;;
77513;SDS011;66626;48.872;9.084;2023-04-10T05:52:22;15.65;;;7.05;;
77513;SDS011;66626;48.872;9.084;2023-04-10T05:54:48;15.13;;;6.85;;
77513;SDS011;66626;48.872;9.084;2023-04-10T05:57:13;14.05;;;7.20;;
77513;SDS011;66626;48.872;9.084;2023-04-10T05:59:39;16.08;;;7.45;;
77513;SDS011;66626;48.872;9.084;2023-04-10T06:02:05;12.85;;;7.00;;
77513;SDS011;66626;48.872;9.084;2023-04-10T06:04:30;14.77;;;7.40;;
77513;SDS011;66626;48.872;9.084;2023-04-10T06:06:55;16.85;;;7.93;;
77513;SDS011;66626;48.872;9.084;2023-04-10T06:09:22;15.93;;;7.45;;
77513;SDS011;66626;48.872;9.084;2023-04-10T06:11:47;13.27;;;6.60;;
77513;SDS011;66626;48.872;9.084;2023-04-10T06:14:12;16.33;;;7.57;;
77513;SDS011;66626;48.872;9.084;2023-04-10T06:16:38;18.42;;;8.23;;
77513;SDS011;66626;48.872;9.084;2023-04-10T06:19:03;23.08;;;12.20;;
77513;SDS011;66626;48.872;9.084;2023-04-10T06:21:28;15.88;;;7.78;;
77513;SDS011;66626;48.872;9.084;2023-04-10T06:23:54;13.65;;;6.47;;
77513;SDS011;66626;48.872;9.084;2023-04-10T06:26:19;15.85;;;7.50;;
77513;SDS011;66626;48.872;9.084;2023-04-10T06:28:44;16.05;;;7.15;;
77513;SDS011;66626;48.872;9.084;2023-04-10T06:31:10;19.33;;;8.80;;
77513;SDS011;66626;48.872;9.084;2023-04-10T06:33:36;17.33;;;8.25;;
77513;SDS011;66626;48.872;9.084;2023-04-10T06:36:01;17.83;;;8.70;;
77513;SDS011;66626;48.872;9.084;2023-04-10T06:38:27;19.25;;;8.57;;
77513;SDS011;66626;48.872;9.084;2023-04-10T06:40:53;15.35;;;7.55;;
77513;SDS011;66626;48.872;9.084;2023-04-10T06:43:18;14.23;;;7.00;;
77513;SDS011;66626;48.872;9.084;2023-04-10T06:45:45;16.15;;;7.95;;
77513;SDS011;66626;48.872;9.084;2023-04-10T06:48:10;18.65;;;7.47;;
77513;SDS011;66626;48.872;9.084;2023-04-10T06:50:36;13.25;;;6.68;;
77513;SDS011;66626;48.872;9.084;2023-04-10T06:53:01;16.33;;;7.28;;
77513;SDS011;66626;48.872;9.084;2023-04-10T06:55:26;11.00;;;6.03;;
77513;SDS011;66626;48.872;9.084;2023-04-10T06:57:52;13.25;;;6.05;;
77513;SDS011;66626;48.872;9.084;2023-04-10T07:00:18;15.38;;;7.85;;
77513;SDS011;66626;48.872;9.084;2023-04-10T07:02:43;16.48;;;7.00;;
77513;SDS011;66626;48.872;9.084;2023-04-10T07:05:09;16.65;;;7.05;;
77513;SDS011;66626;48.872;9.084;2023-04-10T07:07:35;12.93;;;6.85;;
77513;SDS011;66626;48.872;9.084;2023-04-10T07:10:00;12.82;;;6.93;;
77513;SDS011;66626;48.872;9.084;2023-04-10T07:12:25;17.02;;;6.88;;
77513;SDS011;66626;48.872;9.084;2023-04-10T07:14:51;17.65;;;8.05;;
77513;SDS011;66626;48.872;9.084;2023-04-10T07:17:16;14.80;;;7.20;;
77513;SDS011;66626;48.872;9.084;2023-04-10T07:19:41;11.45;;;7.25;;
77513;SDS011;66626;48.872;9.084;2023-04-10T07:22:07;14.75;;;6.82;;
77513;SDS011;66626;48.872;9.084;2023-04-10T07:24:32;16.95;;;8.85;;
77513;SDS011;66626;48.872;9.084;2023-04-10T07:26:57;13.90;;;5.95;;
77513;SDS011;66626;48.872;9.084;2023-04-10T07:29:24;12.13;;;6.45;;
77513;SDS011;66626;48.872;9.084;2023-04-10T07:31:50;11.13;;;4.90;;
77513;SDS011;66626;48.872;9.084;2023-04-10T07:34:15;11.00;;;5.53;;
77513;SDS011;66626;48.872;9.084;2023-04-10T07:36:40;11.13;;;6.15;;
77513;SDS011;66626;48.872;9.084;2023-04-10T07:39:06;11.15;;;5.80;;
77513;SDS011;66626;48.872;9.084;2023-04-10T07:41:31;10.23;;;4.78;;
77513;SDS011;66626;48.872;9.084;2023-04-10T07:43:56;10.43;;;4.25;;
77513;SDS011;66626;48.872;9.084;2023-04-10T07:46:22;8.50;;;4.25;;
77513;SDS011;66626;48.872;9.084;2023-04-10T07:48:47;10.65;;;5.07;;
77513;SDS011;66626;48.872;9.084;2023-04-10T07:51:13;11.57;;;5.05;;
77513;SDS011;66626;48.872;9.084;2023-04-10T07:53:39;10.55;;;4.93;;
77513;SDS011;66626;48.872;9.084;2023-04-10T07:56:04;9.07;;;4.63;;
77513;SDS011;66626;48.872;9.084;2023-04-10T07:58:30;9.63;;;4.63;;
77513;SDS011;66626;48.872;9.084;2023-04-10T08:00:55;10.13;;;4.60;;
77513;SDS011;66626;48.872;9.084;2023-04-10T08:03:21;8.63;;;4.03;;
77513;SDS011;66626;48.872;9.084;2023-04-10T08:05:47;9.52;;;4.53;;
77513;SDS011;66626;48.872;9.084;2023-04-10T08:08:13;8.60;;;4.03;;
77513;SDS011;66626;48.872;9.084;2023-04-10T08:10:39;9.40;;;4.25;;
77513;SDS011;66626;48.872;9.084;2023-04-10T08:13:05;9.25;;;2.80;;
77513;SDS011;66626;48.872;9.084;2023-04-10T08:15:30;7.45;;;3.92;;
77513;SDS011;66626;48.872;9.084;2023-04-10T08:17:55;7.88;;;3.58;;
77513;SDS011;66626;48.872;9.084;2023-04-10T08:20:21;10.93;;;5.00;;
77513;SDS011;66626;48.872;9.084;2023-04-10T08:22:46;9.27;;;4.05;;
77513;SDS011;66626;48.872;9.084;2023-04-10T08:25:11;8.38;;;4.03;;
77513;SDS011;66626;48.872;9.084;2023-04-10T08:27:37;8.65;;;4.32;;
77513;SDS011;66626;48.872;9.084;2023-04-10T08:30:02;8.07;;;3.78;;
77513;SDS011;66626;48.872;9.084;2023-04-10T08:32:29;9.30;;;3.85;;
77513;SDS011;66626;48.872;9.084;2023-04-10T08:34:55;7.22;;;3.58;;
77513;SDS011;66626;48.872;9.084;2023-04-10T08:37:20;8.15;;;4.18;;
77513;SDS011;66626;48.872;9.084;2023-04-10T08:39:46;7.70;;;3.88;;
77513;SDS011;66626;48.872;9.084;2023-04-10T08:42:11;7.43;;;3.55;;
77513;SDS011;66626;48.872;9.084;2023-04-10T08:44:36;8.50;;;3.92;;
77513;SDS011;66626;48.872;9.084;2023-04-10T08:47:03;7.22;;;3.40;;
77513;SDS011;66626;48.872;9.084;2023-04-10T08:52:08;7.22;;;3.38;;
77513;SDS011;66626;48.872;9.084;2023-04-10T08:54:39;6.45;;;3.35;;
77513;SDS011;66626;48.872;9.084;2023-04-10T08:57:05;6.30;;;3.00;;
77513;SDS011;66626;48.872;9.084;2023-04-10T08:59:31;6.90;;;3.53;;
77513;SDS011;66626;48.872;9.084;2023-04-10T09:01:57;7.05;;;3.30;;
77513;SDS011;66626;48.872;9.084;2023-04-10T09:04:23;6.68;;;3.13;;
77513;SDS011;66626;48.872;9.084;2023-04-10T09:06:49;7.97;;;3.63;;
77513;SDS011;66626;48.872;9.084;2023-04-10T09:09:14;6.40;;;3.28;;
77513;SDS011;66626;48.872;9.084;2023-04-10T09:16:51;6.95;;;3.42;;
77513;SDS011;66626;48.872;9.084;2023-04-10T09:19:30;6.22;;;3.13;;
77513;SDS011;66626;48.872;9.084;2023-04-10T09:21:56;9.23;;;3.95;;
77513;SDS011;66626;48.872;9.084;2023-04-10T09:24:22;6.07;;;3.13;;
77513;SDS011;66626;48.872;9.084;2023-04-10T09:26:47;6.45;;;3.30;;
77513;SDS011;66626;48.872;9.084;2023-04-10T09:29:13;6.60;;;3.15;;
77513;SDS011;66626;48.872;9.084;2023-04-10T09:31:40;5.68;;;2.55;;
77513;SDS011;66626;48.872;9.084;2023-04-10T09:36:40;6.80;;;3.25;;
77513;SDS011;66626;48.872;9.084;2023-04-10T09:39:07;7.28;;;3.67;;
77513;SDS011;66626;48.872;9.084;2023-04-10T09:41:33;6.05;;;2.90;;
77513;SDS011;66626;48.872;9.084;2023-04-10T09:46:31;5.05;;;2.42;;
77513;SDS011;66626;48.872;9.084;2023-04-10T09:48:58;5.25;;;2.63;;
77513;SDS011;66626;48.872;9.084;2023-04-10T09:51:28;5.72;;;2.78;;
77513;SDS011;66626;48.872;9.084;2023-04-10T09:53:54;5.32;;;2.25;;
77513;SDS011;66626;48.872;9.084;2023-04-10T09:56:21;5.35;;;2.38;;
77513;SDS011;66626;48.872;9.084;2023-04-10T09:58:47;4.60;;;2.28;;
77513;SDS011;66626;48.872;9.084;2023-04-10T10:01:13;5.97;;;2.55;;
77513;SDS011;66626;48.872;9.084;2023-04-10T10:03:38;4.68;;;2.25;;
77513;SDS011;66626;48.872;9.084;2023-04-10T10:06:04;6.10;;;2.40;;
77513;SDS011;66626;48.872;9.084;2023-04-10T10:08:30;4.05;;;2.10;;
77513;SDS011;66626;48.872;9.084;2023-04-10T10:10:58;5.63;;;2.53;;
77513;SDS011;66626;48.872;9.084;2023-04-10T10:13:29;4.45;;;2.17;;
77513;SDS011;66626;48.872;9.084;2023-04-10T10:18:46;4.20;;;1.85;;
77513;SDS011;66626;48.872;9.084;2023-04-10T10:21:16;4.75;;;2.33;;
77513;SDS011;66626;48.872;9.084;2023-04-10T10:23:43;4.45;;;1.92;;
77513;SDS011;66626;48.872;9.084;2023-04-10T10:26:09;4.78;;;2.40;;
77513;SDS011;66626;48.872;9.084;2023-04-10T10:28:35;4.45;;;2.17;;
77513;SDS011;66626;48.872;9.084;2023-04-10T10:31:04;5.00;;;2.50;;
77513;SDS011;66626;48.872;9.084;2023-04-10T10:33:29;5.10;;;2.08;;
77513;SDS011;66626;48.872;9.084;2023-04-10T10:35:59;5.05;;;1.98;;
77513;SDS011;66626;48.872;9.084;2023-04-10T10:38:25;6.00;;;2.97;;
77513;SDS011;66626;48.872;9.084;2023-04-10T10:40:53;5.70;;;2.80;;
77513;SDS011;66626;48.872;9.084;2023-04-10T10:43:46;4.45;;;1.95;;
77513;SDS011;66626;48.872;9.084;2023-04-10T10:46:36;4.45;;;1.90;;
77513;SDS011;66626;48.872;9.084;2023-04-10T10:49:04;4.82;;;2.08;;
77513;SDS011;66626;48.872;9.084;2023-04-10T10:51:42;5.28;;;2.00;;
77513;SDS011;66626;48.872;9.084;2023-04-10T10:54:27;5.15;;;1.88;;
77513;SDS011;66626;48.872;9.084;2023-04-10T10:56:53;4.63;;;1.88;;
77513;SDS011;66626;48.872;9.084;2023-04-10T10:59:22;4.35;;;1.80;;
77513;SDS011;66626;48.872;9.084;2023-04-10T11:02:12;4.07;;;1.70;;
77513;SDS011;66626;48.872;9.084;2023-04-10T11:04:42;4.18;;;1.73;;
77513;SDS011;66626;48.872;9.084;2023-04-10T11:07:10;4.50;;;1.70;;
77513;SDS011;66626;48.872;9.084;2023-04-10T11:09:46;4.78;;;1.80;;
77513;SDS011;66626;48.872;9.084;2023-04-10T11:12:15;4.43;;;1.92;;
77513;SDS011;66626;48.872;9.084;2023-04-10T11:14:43;5.07;;;1.75;;
77513;SDS011;66626;48.872;9.084;2023-04-10T11:17:09;4.28;;;1.50;;
77513;SDS011;66626;48.872;9.084;2023-04-10T11:22:39;3.67;;;1.58;;
77513;SDS011;66626;48.872;9.084;2023-04-10T11:25:50;5.47;;;2.40;;
77513;SDS011;66626;48.872;9.084;2023-04-10T11:28:32;3.40;;;1.30;;
77513;SDS011;66626;48.872;9.084;2023-04-10T11:31:13;3.35;;;1.20;;
77513;SDS011;66626;48.872;9.084;2023-04-10T11:33:40;3.78;;;1.33;;
77513;SDS011;66626;48.872;9.084;2023-04-10T11:36:06;3.70;;;1.40;;
77513;SDS011;66626;48.872;9.084;2023-04-10T11:38:31;4.05;;;1.65;;
77513;SDS011;66626;48.872;9.084;2023-04-10T11:41:01;3.53;;;1.40;;
77513;SDS011;66626;48.872;9.084;2023-04-10T11:43:28;3.88;;;1.40;;
77513;SDS011;66626;48.872;9.084;2023-04-10T11:45:58;2.65;;;1.00;;
77513;SDS011;66626;48.872;9.084;2023-04-10T11:48:24;2.92;;;1.10;;
77513;SDS011;66626;48.872;9.084;2023-04-10T11:50:49;2.97;;;1.10;;
77513;SDS011;66626;48.872;9.084;2023-04-10T11:53:21;3.63;;;1.10;;
77513;SDS011;66626;48.872;9.084;2023-04-10T11:55:46;3.28;;;1.20;;
77513;SDS011;66626;48.872;9.084;2023-04-10T11:58:26;3.00;;;1.30;;
77513;SDS011;66626;48.872;9.084;2023-04-10T12:00:56;3.83;;;1.52;;
77513;SDS011;66626;48.872;9.084;2023-04-10T12:03:34;3.65;;;1.48;;
77513;SDS011;66626;48.872;9.084;2023-04-10T12:06:01;3.00;;;1.10;;
77513;SDS011;66626;48.872;9.084;2023-04-10T12:08:35;3.53;;;1.10;;
77513;SDS011;66626;48.872;9.084;2023-04-10T12:11:02;2.90;;;1.17;;
77513;SDS011;66626;48.872;9.084;2023-04-10T12:13:27;3.40;;;1.15;;
77513;SDS011;66626;48.872;9.084;2023-04-10T12:15:53;3.20;;;1.20;;
77513;SDS011;66626;48.872;9.084;2023-04-10T12:18:22;3.90;;;1.80;;
77513;SDS011;66626;48.872;9.084;2023-04-10T12:20:47;3.35;;;1.33;;
77513;SDS011;66626;48.872;9.084;2023-04-10T12:23:15;3.78;;;1.52;;
77513;SDS011;66626;48.872;9.084;2023-04-10T12:25:40;3.40;;;1.33;;
77513;SDS011;66626;48.872;9.084;2023-04-10T12:28:06;3.00;;;1.30;;
77513;SDS011;66626;48.872;9.084;2023-04-10T12:30:32;3.13;;;1.10;;
77513;SDS011;66626;48.872;9.084;2023-04-10T12:32:57;2.50;;;0.98;;
77513;SDS011;66626;48.872;9.084;2023-04-10T12:35:37;3.03;;;1.20;;
77513;SDS011;66626;48.872;9.084;2023-04-10T12:38:02;2.28;;;1.00;;
77513;SDS011;66626;48.872;9.084;2023-04-10T12:40:28;2.30;;;1.08;;
77513;SDS011;66626;48.872;9.084;2023-04-10T12:42:53;2.53;;;1.00;;
77513;SDS011;66626;48.872;9.084;2023-04-10T12:45:18;3.33;;;1.40;;
77513;SDS011;66626;48.872;9.084;2023-04-10T12:47:47;3.40;;;1.17;;
77513;SDS011;66626;48.872;9.084;2023-04-10T12:50:15;3.67;;;1.50;;
77513;SDS011;66626;48.872;9.084;2023-04-10T12:52:42;2.05;;;0.77;;
77513;SDS011;66626;48.872;9.084;2023-04-10T12:57:41;2.42;;;0.95;;
77513;SDS011;66626;48.872;9.084;2023-04-10T13:00:09;2.78;;;0.90;;
77513;SDS011;66626;48.872;9.084;2023-04-10T13:02:36;2.97;;;1.02;;
77513;SDS011;66626;48.872;9.084;2023-04-10T13:05:01;5.50;;;1.38;;
77513;SDS011;66626;48.872;9.084;2023-04-10T13:07:27;3.08;;;1.10;;
77513;SDS011;66626;48.872;9.084;2023-04-10T13:09:53;3.00;;;1.15;;
77513;SDS011;66626;48.872;9.084;2023-04-10T13:12:18;1.70;;;0.65;;
77513;SDS011;66626;48.872;9.084;2023-04-10T13:14:43;2.40;;;0.88;;
77513;SDS011;66626;48.872;9.084;2023-04-10T13:17:10;2.08;;;0.73;;
77513;SDS011;66626;48.872;9.084;2023-04-10T13:19:35;2.47;;;0.73;;
77513;SDS011;66626;48.872;9.084;2023-04-10T13:22:00;3.33;;;1.10;;
77513;SDS011;66626;48.872;9.084;2023-04-10T13:24:28;2.20;;;0.90;;
77513;SDS011;66626;48.872;9.084;2023-04-10T13:26:54;2.97;;;1.00;;
77513;SDS011;66626;48.872;9.084;2023-04-10T13:29:21;2.58;;;1.02;;
77513;SDS011;66626;48.872;9.084;2023-04-10T13:31:46;2.40;;;0.95;;
77513;SDS011;66626;48.872;9.084;2023-04-10T13:34:11;2.42;;;0.80;;
77513;SDS011;66626;48.872;9.084;2023-04-10T13:36:36;2.88;;;1.00;;
77513;SDS011;66626;48.872;9.084;2023-04-10T13:39:02;2.88;;;0.90;;
77513;SDS011;66626;48.872;9.084;2023-04-10T13:41:27;2.90;;;1.00;;
77513;SDS011;66626;48.872;9.084;2023-04-10T13:43:52;3.03;;;1.08;;
77513;SDS011;66626;48.872;9.084;2023-04-10T13:46:18;2.40;;;1.00;;
77513;SDS011;66626;48.872;9.084;2023-04-10T13:48:43;1.88;;;0.65;;
77513;SDS011;66626;48.872;9.084;2023-04-10T13:51:08;2.25;;;1.23;;
77513;SDS011;66626;48.872;9.084;2023-04-10T13:53:34;2.55;;;1.05;;
77513;SDS011;66626;48.872;9.084;2023-04-10T13:55:59;2.92;;;1.00;;
77513;SDS011;66626;48.872;9.084;2023-04-10T13:58:24;2.22;;;0.90;;
77513;SDS011;66626;48.872;9.084;2023-04-10T14:00:53;2.78;;;1.00;;
77513;SDS011;66626;48.872;9.084;2023-04-10T14:03:19;2.75;;;1.00;;
77513;SDS011;66626;48.872;9.084;2023-04-10T14:05:44;2.63;;;0.93;;
77513;SDS011;66626;48.872;9.084;2023-04-10T14:08:09;2.60;;;0.90;;
77513;SDS011;66626;48.872;9.084;2023-04-10T14:10:38;3.60;;;1.20;;
77513;SDS011;66626;48.872;9.084;2023-04-10T14:13:04;3.03;;;1.17;;
77513;SDS011;66626;48.872;9.084;2023-04-10T14:15:30;2.03;;;0.80;;
77513;SDS011;66626;48.872;9.084;2023-04-10T14:17:55;3.35;;;1.30;;
77513;SDS011;66626;48.872;9.084;2023-04-10T14:20:21;2.88;;;1.00;;
77513;SDS011;66626;48.872;9.084;2023-04-10T14:22:46;3.08;;;1.08;;
77513;SDS011;66626;48.872;9.084;2023-04-10T14:25:11;3.75;;;1.20;;
77513;SDS011;66626;48.872;9.084;2023-04-10T14:27:39;2.72;;;1.02;;
77513;SDS011;66626;48.872;9.084;2023-04-10T14:30:05;3.00;;;1.10;;
77513;SDS011;66626;48.872;9.084;2023-04-10T14:32:31;1.92;;;0.80;;
77513;SDS011;66626;48.872;9.084;2023-04-10T14:34:56;3.15;;;1.20;;
77513;SDS011;66626;48.872;9.084;2023-04-10T14:37:22;2.53;;;1.15;;
77513;SDS011;66626;48.872;9.084;2023-04-10T14:39:47;3.33;;;1.20;;
77513;SDS011;66626;48.872;9.084;2023-04-10T14:42:12;3.10;;;1.05;;
77513;SDS011;66626;48.872;9.084;2023-04-10T14:44:37;3.10;;;1.10;;
77513;SDS011;66626;48.872;9.084;2023-04-10T14:47:03;2.88;;;1.10;;
77513;SDS011;66626;48.872;9.084;2023-04-10T14:49:30;3.03;;;1.30;;
77513;SDS011;66626;48.872;9.084;2023-04-10T14:51:56;2.85;;;1.00;;
77513;SDS011;66626;48.872;9.084;2023-04-10T14:54:21;3.60;;;1.27;;
77513;SDS011;66626;48.872;9.084;2023-04-10T14:56:48;2.70;;;1.00;;
77513;SDS011;66626;48.872;9.084;2023-04-10T14:59:13;2.83;;;1.02;;
77513;SDS011;66626;48.872;9.084;2023-04-10T15:01:39;2.50;;;1.10;;
77513;SDS011;66626;48.872;9.084;2023-04-10T15:04:05;4.00;;;1.42;;
77513;SDS011;66626;48.872;9.084;2023-04-10T15:06:33;2.42;;;0.90;;
77513;SDS011;66626;48.872;9.084;2023-04-10T15:08:59;4.35;;;1.30;;